sensor_id;sensor_type;location;lat;lon;timestamp;P1;P2;P0
77699;PMS5003;66867;42.658;23.320;2023-02-04T00:00:00;20;17;
77699;PMS5003;66867;42.658;23.320;2023-02-04T00:01:00;24;22;
77699;PMS5003;66867;42.658;23.320;2023-02-04T00:02:00;21;19;
77699;PMS5003;66867;42.658;23.320;2023-02-04T00:03:00;21;20;
77699;PMS5003;66867;42.658;23.320;2023-02-04T00:04:00;21;20;
77699;PMS5003;66867;42.658;23.320;2023-02-04T00:05:00;21;21;
77699;PMS5003;66867;42.658;23.320;2023-02-04T00:06:00;24;21;
77699;PMS5003;66867;42.658;23.320;2023-02-04T00:07:00;20;19;
77699;PMS5003;66867;42.658;23.320;2023-02-04T00:08:00;22;21;
77699;PMS5003;66867;42.658;23.320;2023-02-04T00:09:00;21;20;
77699;PMS5003;66867;42.658;23.320;2023-02-04T00:10:01;20;19;
77699;PMS5003;66867;42.658;23.320;2023-02-04T00:11:00;24;21;
77699;PMS5003;66867;42.658;23.320;2023-02-04T00:12:00;21;21;
77699;PMS5003;66867;42.658;23.320;2023-02-04T00:13:00;17;17;
77699;PMS5003;66867;42.658;23.320;2023-02-04T00:14:00;19;17;
77699;PMS5003;66867;42.658;23.320;2023-02-04T00:15:00;17;16;
77699;PMS5003;66867;42.658;23.320;2023-02-04T00:16:00;20;20;
77699;PMS5003;66867;42.658;23.320;2023-02-04T00:17:00;25;24;
77699;PMS5003;66867;42.658;23.320;2023-02-04T00:18:00;20;20;
77699;PMS5003;66867;42.658;23.320;2023-02-04T00:19:00;21;20;
77699;PMS5003;66867;42.658;23.320;2023-02-04T00:20:00;20;19;
77699;PMS5003;66867;42.658;23.320;2023-02-04T00:21:00;22;22;
77699;PMS5003;66867;42.658;23.320;2023-02-04T00:22:00;23;21;
77699;PMS5003;66867;42.658;23.320;2023-02-04T00:23:00;20;19;
77699;PMS5003;66867;42.658;23.320;2023-02-04T00:24:00;21;19;
77699;PMS5003;66867;42.658;23.320;2023-02-04T00:25:00;21;21;
77699;PMS5003;66867;42.658;23.320;2023-02-04T00:26:00;19;19;
77699;PMS5003;66867;42.658;23.320;2023-02-04T00:27:00;20;20;
77699;PMS5003;66867;42.658;23.320;2023-02-04T00:28:00;17;17;
77699;PMS5003;66867;42.658;23.320;2023-02-04T00:29:00;22;20;
77699;PMS5003;66867;42.658;23.320;2023-02-04T00:30:00;21;20;
77699;PMS5003;66867;42.658;23.320;2023-02-04T00:31:00;19;19;
77699;PMS5003;66867;42.658;23.320;2023-02-04T00:32:00;22;21;
77699;PMS5003;66867;42.658;23.320;2023-02-04T00:33:00;24;22;
77699;PMS5003;66867;42.658;23.320;2023-02-04T00:34:00;21;21;
77699;PMS5003;66867;42.658;23.320;2023-02-04T00:35:00;19;19;
77699;PMS5003;66867;42.658;23.320;2023-02-04T00:36:00;22;21;
77699;PMS5003;66867;42.658;23.320;2023-02-04T00:37:00;19;17;
77699;PMS5003;66867;42.658;23.320;2023-02-04T00:38:00;22;22;
77699;PMS5003;66867;42.658;23.320;2023-02-04T00:39:00;21;20;
77699;PMS5003;66867;42.658;23.320;2023-02-04T00:40:00;22;20;
77699;PMS5003;66867;42.658;23.320;2023-02-04T00:41:00;24;22;
77699;PMS5003;66867;42.658;23.320;2023-02-04T00:42:00;24;23;
77699;PMS5003;66867;42.658;23.320;2023-02-04T00:43:00;21;20;
77699;PMS5003;66867;42.658;23.320;2023-02-04T00:44:00;21;17;
77699;PMS5003;66867;42.658;23.320;2023-02-04T00:45:00;20;17;
77699;PMS5003;66867;42.658;23.320;2023-02-04T00:46:00;19;17;
77699;PMS5003;66867;42.658;23.320;2023-02-04T00:47:00;19;17;
77699;PMS5003;66867;42.658;23.320;2023-02-04T00:48:00;20;17;
77699;PMS5003;66867;42.658;23.320;2023-02-04T00:49:00;19;16;
77699;PMS5003;66867;42.658;23.320;2023-02-04T00:50:00;21;19;
77699;PMS5003;66867;42.658;23.320;2023-02-04T00:51:00;22;21;
77699;PMS5003;66867;42.658;23.320;2023-02-04T00:52:00;17;16;
77699;PMS5003;66867;42.658;23.320;2023-02-04T00:53:00;20;19;
77699;PMS5003;66867;42.658;23.320;2023-02-04T00:54:00;21;20;
77699;PMS5003;66867;42.658;23.320;2023-02-04T00:55:00;16;15;
77699;PMS5003;66867;42.658;23.320;2023-02-04T00:56:00;24;23;
77699;PMS5003;66867;42.658;23.320;2023-02-04T00:57:00;24;23;
77699;PMS5003;66867;42.658;23.320;2023-02-04T00:58:00;23;23;
77699;PMS5003;66867;42.658;23.320;2023-02-04T00:59:00;19;19;
77699;PMS5003;66867;42.658;23.320;2023-02-04T01:00:00;20;19;
77699;PMS5003;66867;42.658;23.320;2023-02-04T01:01:00;21;21;
77699;PMS5003;66867;42.658;23.320;2023-02-04T01:02:00;20;19;
77699;PMS5003;66867;42.658;23.320;2023-02-04T01:03:00;23;20;
77699;PMS5003;66867;42.658;23.320;2023-02-04T01:04:00;21;21;
77699;PMS5003;66867;42.658;23.320;2023-02-04T01:05:00;16;16;
77699;PMS5003;66867;42.658;23.320;2023-02-04T01:06:00;17;16;
77699;PMS5003;66867;42.658;23.320;2023-02-04T01:07:00;19;17;
77699;PMS5003;66867;42.658;23.320;2023-02-04T01:08:00;21;19;
77699;PMS5003;66867;42.658;23.320;2023-02-04T01:09:00;19;19;
77699;PMS5003;66867;42.658;23.320;2023-02-04T01:10:00;23;19;
77699;PMS5003;66867;42.658;23.320;2023-02-04T01:11:00;24;23;
77699;PMS5003;66867;42.658;23.320;2023-02-04T01:12:00;23;23;
77699;PMS5003;66867;42.658;23.320;2023-02-04T01:13:00;26;24;
77699;PMS5003;66867;42.658;23.320;2023-02-04T01:14:00;26;25;
77699;PMS5003;66867;42.658;23.320;2023-02-04T01:15:00;29;26;
77699;PMS5003;66867;42.658;23.320;2023-02-04T01:16:00;26;24;
77699;PMS5003;66867;42.658;23.320;2023-02-04T01:17:00;29;25;
77699;PMS5003;66867;42.658;23.320;2023-02-04T01:18:00;30;28;
77699;PMS5003;66867;42.658;23.320;2023-02-04T01:19:00;28;24;
77699;PMS5003;66867;42.658;23.320;2023-02-04T01:20:00;27;24;
77699;PMS5003;66867;42.658;23.320;2023-02-04T01:21:00;32;26;
77699;PMS5003;66867;42.658;23.320;2023-02-04T01:22:00;30;28;
77699;PMS5003;66867;42.658;23.320;2023-02-04T01:23:00;25;23;
77699;PMS5003;66867;42.658;23.320;2023-02-04T01:24:00;28;24;
77699;PMS5003;66867;42.658;23.320;2023-02-04T01:25:00;28;28;
77699;PMS5003;66867;42.658;23.320;2023-02-04T01:26:00;28;28;
77699;PMS5003;66867;42.658;23.320;2023-02-04T01:27:00;29;26;
77699;PMS5003;66867;42.658;23.320;2023-02-04T01:28:00;25;25;
77699;PMS5003;66867;42.658;23.320;2023-02-04T01:29:00;30;28;
77699;PMS5003;66867;42.658;23.320;2023-02-04T01:30:00;21;21;
77699;PMS5003;66867;42.658;23.320;2023-02-04T01:31:00;28;27;
77699;PMS5003;66867;42.658;23.320;2023-02-04T01:32:00;25;25;
77699;PMS5003;66867;42.658;23.320;2023-02-04T01:33:00;28;27;
77699;PMS5003;66867;42.658;23.320;2023-02-04T01:34:00;30;28;
77699;PMS5003;66867;42.658;23.320;2023-02-04T01:35:00;30;29;
77699;PMS5003;66867;42.658;23.320;2023-02-04T01:36:00;36;33;
77699;PMS5003;66867;42.658;23.320;2023-02-04T01:37:00;32;30;
77699;PMS5003;66867;42.658;23.320;2023-02-04T01:38:00;30;28;
77699;PMS5003;66867;42.658;23.320;2023-02-04T01:39:00;33;33;
77699;PMS5003;66867;42.658;23.320;2023-02-04T01:40:00;30;29;
77699;PMS5003;66867;42.658;23.320;2023-02-04T01:41:00;29;28;
77699;PMS5003;66867;42.658;23.320;2023-02-04T01:42:00;29;29;
77699;PMS5003;66867;42.658;23.320;2023-02-04T01:43:00;30;30;
77699;PMS5003;66867;42.658;23.320;2023-02-04T01:44:00;33;30;
77699;PMS5003;66867;42.658;23.320;2023-02-04T01:45:00;36;33;
77699;PMS5003;66867;42.658;23.320;2023-02-04T01:46:00;27;25;
77699;PMS5003;66867;42.658;23.320;2023-02-04T01:47:00;32;32;
77699;PMS5003;66867;42.658;23.320;2023-02-04T01:48:02;30;27;
77699;PMS5003;66867;42.658;23.320;2023-02-04T01:49:00;29;27;
77699;PMS5003;66867;42.658;23.320;2023-02-04T01:50:00;32;29;
77699;PMS5003;66867;42.658;23.320;2023-02-04T01:51:04;32;27;
77699;PMS5003;66867;42.658;23.320;2023-02-04T01:52:00;28;25;
77699;PMS5003;66867;42.658;23.320;2023-02-04T01:53:00;29;29;
77699;PMS5003;66867;42.658;23.320;2023-02-04T01:54:00;25;24;
77699;PMS5003;66867;42.658;23.320;2023-02-04T01:55:00;27;27;
77699;PMS5003;66867;42.658;23.320;2023-02-04T01:56:01;25;25;
77699;PMS5003;66867;42.658;23.320;2023-02-04T01:57:00;24;21;
77699;PMS5003;66867;42.658;23.320;2023-02-04T01:58:00;29;28;
77699;PMS5003;66867;42.658;23.320;2023-02-04T01:59:00;27;27;
77699;PMS5003;66867;42.658;23.320;2023-02-04T02:00:00;29;27;
77699;PMS5003;66867;42.658;23.320;2023-02-04T02:01:00;27;24;
77699;PMS5003;66867;42.658;23.320;2023-02-04T02:02:00;23;23;
77699;PMS5003;66867;42.658;23.320;2023-02-04T02:03:00;28;28;
77699;PMS5003;66867;42.658;23.320;2023-02-04T02:04:00;27;25;
77699;PMS5003;66867;42.658;23.320;2023-02-04T02:05:00;25;25;
77699;PMS5003;66867;42.658;23.320;2023-02-04T02:06:00;29;28;
77699;PMS5003;66867;42.658;23.320;2023-02-04T02:07:02;27;24;
77699;PMS5003;66867;42.658;23.320;2023-02-04T02:08:01;27;25;
77699;PMS5003;66867;42.658;23.320;2023-02-04T02:09:00;29;28;
77699;PMS5003;66867;42.658;23.320;2023-02-04T02:10:00;29;28;
77699;PMS5003;66867;42.658;23.320;2023-02-04T02:11:00;28;28;
77699;PMS5003;66867;42.658;23.320;2023-02-04T02:12:01;28;27;
77699;PMS5003;66867;42.658;23.320;2023-02-04T02:13:00;32;30;
77699;PMS5003;66867;42.658;23.320;2023-02-04T02:14:00;25;24;
77699;PMS5003;66867;42.658;23.320;2023-02-04T02:15:00;24;24;
77699;PMS5003;66867;42.658;23.320;2023-02-04T02:16:00;30;27;
77699;PMS5003;66867;42.658;23.320;2023-02-04T02:17:00;30;28;
77699;PMS5003;66867;42.658;23.320;2023-02-04T02:18:00;33;31;
77699;PMS5003;66867;42.658;23.320;2023-02-04T02:19:00;33;30;
77699;PMS5003;66867;42.658;23.320;2023-02-04T02:20:00;29;25;
77699;PMS5003;66867;42.658;23.320;2023-02-04T02:21:04;28;25;
77699;PMS5003;66867;42.658;23.320;2023-02-04T02:22:04;38;32;
77699;PMS5003;66867;42.658;23.320;2023-02-04T02:24:26;33;31;
77699;PMS5003;66867;42.658;23.320;2023-02-04T02:25:00;29;29;
77699;PMS5003;66867;42.658;23.320;2023-02-04T02:26:00;24;24;
77699;PMS5003;66867;42.658;23.320;2023-02-04T02:27:02;28;27;
77699;PMS5003;66867;42.658;23.320;2023-02-04T02:28:10;28;25;
77699;PMS5003;66867;42.658;23.320;2023-02-04T02:29:00;30;29;
77699;PMS5003;66867;42.658;23.320;2023-02-04T02:30:00;24;23;
77699;PMS5003;66867;42.658;23.320;2023-02-04T02:31:00;32;30;
77699;PMS5003;66867;42.658;23.320;2023-02-04T02:32:00;29;27;
77699;PMS5003;66867;42.658;23.320;2023-02-04T02:33:00;27;25;
77699;PMS5003;66867;42.658;23.320;2023-02-04T02:34:00;32;27;
77699;PMS5003;66867;42.658;23.320;2023-02-04T02:35:00;29;27;
77699;PMS5003;66867;42.658;23.320;2023-02-04T02:36:00;33;29;
77699;PMS5003;66867;42.658;23.320;2023-02-04T02:37:01;29;29;
77699;PMS5003;66867;42.658;23.320;2023-02-04T02:38:00;30;29;
77699;PMS5003;66867;42.658;23.320;2023-02-04T02:39:00;28;27;
77699;PMS5003;66867;42.658;23.320;2023-02-04T02:40:00;31;29;
77699;PMS5003;66867;42.658;23.320;2023-02-04T02:41:00;28;26;
77699;PMS5003;66867;42.658;23.320;2023-02-04T02:42:00;25;24;
77699;PMS5003;66867;42.658;23.320;2023-02-04T02:43:00;27;25;
77699;PMS5003;66867;42.658;23.320;2023-02-04T02:44:00;27;25;
77699;PMS5003;66867;42.658;23.320;2023-02-04T02:45:02;27;27;
77699;PMS5003;66867;42.658;23.320;2023-02-04T02:46:00;29;29;
77699;PMS5003;66867;42.658;23.320;2023-02-04T02:47:00;26;25;
77699;PMS5003;66867;42.658;23.320;2023-02-04T02:48:01;28;25;
77699;PMS5003;66867;42.658;23.320;2023-02-04T02:49:00;29;26;
77699;PMS5003;66867;42.658;23.320;2023-02-04T02:50:00;24;23;
77699;PMS5003;66867;42.658;23.320;2023-02-04T02:51:00;23;23;
77699;PMS5003;66867;42.658;23.320;2023-02-04T02:52:00;31;28;
77699;PMS5003;66867;42.658;23.320;2023-02-04T02:53:00;28;27;
77699;PMS5003;66867;42.658;23.320;2023-02-04T02:54:00;33;33;
77699;PMS5003;66867;42.658;23.320;2023-02-04T02:55:00;29;25;
77699;PMS5003;66867;42.658;23.320;2023-02-04T02:56:00;28;24;
77699;PMS5003;66867;42.658;23.320;2023-02-04T02:57:00;29;29;
77699;PMS5003;66867;42.658;23.320;2023-02-04T02:58:00;30;30;
77699;PMS5003;66867;42.658;23.320;2023-02-04T02:59:11;27;24;
77699;PMS5003;66867;42.658;23.320;2023-02-04T03:00:00;24;24;
77699;PMS5003;66867;42.658;23.320;2023-02-04T03:01:01;28;25;
77699;PMS5003;66867;42.658;23.320;2023-02-04T03:02:01;27;23;
77699;PMS5003;66867;42.658;23.320;2023-02-04T03:03:03;27;25;
77699;PMS5003;66867;42.658;23.320;2023-02-04T03:04:00;24;23;
77699;PMS5003;66867;42.658;23.320;2023-02-04T03:05:00;27;25;
77699;PMS5003;66867;42.658;23.320;2023-02-04T03:06:04;33;27;
77699;PMS5003;66867;42.658;23.320;2023-02-04T03:07:00;30;27;
77699;PMS5003;66867;42.658;23.320;2023-02-04T03:08:00;29;28;
77699;PMS5003;66867;42.658;23.320;2023-02-04T03:09:00;33;32;
77699;PMS5003;66867;42.658;23.320;2023-02-04T03:10:00;29;28;
77699;PMS5003;66867;42.658;23.320;2023-02-04T03:11:00;30;28;
77699;PMS5003;66867;42.658;23.320;2023-02-04T03:12:00;33;28;
77699;PMS5003;66867;42.658;23.320;2023-02-04T03:13:00;34;33;
77699;PMS5003;66867;42.658;23.320;2023-02-04T03:14:00;27;27;
77699;PMS5003;66867;42.658;23.320;2023-02-04T03:15:00;25;25;
77699;PMS5003;66867;42.658;23.320;2023-02-04T03:16:00;28;24;
77699;PMS5003;66867;42.658;23.320;2023-02-04T03:17:01;34;28;
77699;PMS5003;66867;42.658;23.320;2023-02-04T03:18:00;32;30;
77699;PMS5003;66867;42.658;23.320;2023-02-04T03:19:00;27;25;
77699;PMS5003;66867;42.658;23.320;2023-02-04T03:20:00;27;25;
77699;PMS5003;66867;42.658;23.320;2023-02-04T03:21:00;32;30;
77699;PMS5003;66867;42.658;23.320;2023-02-04T03:22:00;27;23;
77699;PMS5003;66867;42.658;23.320;2023-02-04T03:23:00;25;25;
77699;PMS5003;66867;42.658;23.320;2023-02-04T03:24:00;25;25;
77699;PMS5003;66867;42.658;23.320;2023-02-04T03:25:00;24;20;
77699;PMS5003;66867;42.658;23.320;2023-02-04T03:26:00;32;30;
77699;PMS5003;66867;42.658;23.320;2023-02-04T03:27:00;25;25;
77699;PMS5003;66867;42.658;23.320;2023-02-04T03:28:00;25;24;
77699;PMS5003;66867;42.658;23.320;2023-02-04T03:29:00;27;24;
77699;PMS5003;66867;42.658;23.320;2023-02-04T03:30:00;27;26;
77699;PMS5003;66867;42.658;23.320;2023-02-04T03:31:00;29;28;
77699;PMS5003;66867;42.658;23.320;2023-02-04T03:32:00;25;24;
77699;PMS5003;66867;42.658;23.320;2023-02-04T03:33:00;30;27;
77699;PMS5003;66867;42.658;23.320;2023-02-04T03:34:00;33;30;
77699;PMS5003;66867;42.658;23.320;2023-02-04T03:35:00;28;28;
77699;PMS5003;66867;42.658;23.320;2023-02-04T03:36:00;30;27;
77699;PMS5003;66867;42.658;23.320;2023-02-04T03:37:00;28;27;
77699;PMS5003;66867;42.658;23.320;2023-02-04T03:38:00;30;28;
77699;PMS5003;66867;42.658;23.320;2023-02-04T03:39:00;29;28;
77699;PMS5003;66867;42.658;23.320;2023-02-04T03:40:00;25;24;
77699;PMS5003;66867;42.658;23.320;2023-02-04T03:41:00;29;29;
77699;PMS5003;66867;42.658;23.320;2023-02-04T03:42:00;24;23;
77699;PMS5003;66867;42.658;23.320;2023-02-04T03:43:00;23;21;
77699;PMS5003;66867;42.658;23.320;2023-02-04T03:44:00;27;25;
77699;PMS5003;66867;42.658;23.320;2023-02-04T03:45:00;23;23;
77699;PMS5003;66867;42.658;23.320;2023-02-04T03:46:00;25;24;
77699;PMS5003;66867;42.658;23.320;2023-02-04T03:47:00;23;23;
77699;PMS5003;66867;42.658;23.320;2023-02-04T03:48:00;33;29;
77699;PMS5003;66867;42.658;23.320;2023-02-04T03:49:00;28;27;
77699;PMS5003;66867;42.658;23.320;2023-02-04T03:50:00;21;21;
77699;PMS5003;66867;42.658;23.320;2023-02-04T03:51:00;28;25;
77699;PMS5003;66867;42.658;23.320;2023-02-04T03:52:00;26;21;
77699;PMS5003;66867;42.658;23.320;2023-02-04T03:53:00;24;23;
77699;PMS5003;66867;42.658;23.320;2023-02-04T03:54:00;28;25;
77699;PMS5003;66867;42.658;23.320;2023-02-04T03:55:00;24;24;
77699;PMS5003;66867;42.658;23.320;2023-02-04T03:56:00;24;23;
77699;PMS5003;66867;42.658;23.320;2023-02-04T03:57:00;25;23;
77699;PMS5003;66867;42.658;23.320;2023-02-04T03:58:00;26;25;
77699;PMS5003;66867;42.658;23.320;2023-02-04T03:59:00;24;23;
77699;PMS5003;66867;42.658;23.320;2023-02-04T04:00:00;24;21;
77699;PMS5003;66867;42.658;23.320;2023-02-04T04:01:00;23;23;
77699;PMS5003;66867;42.658;23.320;2023-02-04T04:02:00;28;27;
77699;PMS5003;66867;42.658;23.320;2023-02-04T04:03:00;24;21;
77699;PMS5003;66867;42.658;23.320;2023-02-04T04:04:00;25;25;
77699;PMS5003;66867;42.658;23.320;2023-02-04T04:05:00;29;27;
77699;PMS5003;66867;42.658;23.320;2023-02-04T04:06:00;19;17;
77699;PMS5003;66867;42.658;23.320;2023-02-04T04:07:00;20;19;
77699;PMS5003;66867;42.658;23.320;2023-02-04T04:08:00;22;21;
77699;PMS5003;66867;42.658;23.320;2023-02-04T04:09:00;30;29;
77699;PMS5003;66867;42.658;23.320;2023-02-04T04:10:00;30;27;
77699;PMS5003;66867;42.658;23.320;2023-02-04T04:11:00;25;25;
77699;PMS5003;66867;42.658;23.320;2023-02-04T04:12:00;28;25;
77699;PMS5003;66867;42.658;23.320;2023-02-04T04:13:00;25;20;
77699;PMS5003;66867;42.658;23.320;2023-02-04T04:14:00;25;24;
77699;PMS5003;66867;42.658;23.320;2023-02-04T04:15:00;25;23;
77699;PMS5003;66867;42.658;23.320;2023-02-04T04:16:00;23;20;
77699;PMS5003;66867;42.658;23.320;2023-02-04T04:17:00;24;24;
77699;PMS5003;66867;42.658;23.320;2023-02-04T04:18:00;25;23;
77699;PMS5003;66867;42.658;23.320;2023-02-04T04:19:00;24;21;
77699;PMS5003;66867;42.658;23.320;2023-02-04T04:20:00;26;24;
77699;PMS5003;66867;42.658;23.320;2023-02-04T04:21:00;25;21;
77699;PMS5003;66867;42.658;23.320;2023-02-04T04:22:00;27;25;
77699;PMS5003;66867;42.658;23.320;2023-02-04T04:23:00;28;27;
77699;PMS5003;66867;42.658;23.320;2023-02-04T04:24:00;22;21;
77699;PMS5003;66867;42.658;23.320;2023-02-04T04:25:00;21;19;
77699;PMS5003;66867;42.658;23.320;2023-02-04T04:26:00;26;24;
77699;PMS5003;66867;42.658;23.320;2023-02-04T04:27:00;19;19;
77699;PMS5003;66867;42.658;23.320;2023-02-04T04:28:00;26;24;
77699;PMS5003;66867;42.658;23.320;2023-02-04T04:29:00;27;27;
77699;PMS5003;66867;42.658;23.320;2023-02-04T04:30:00;20;20;
77699;PMS5003;66867;42.658;23.320;2023-02-04T04:31:00;26;22;
77699;PMS5003;66867;42.658;23.320;2023-02-04T04:32:00;28;25;
77699;PMS5003;66867;42.658;23.320;2023-02-04T04:33:00;19;19;
77699;PMS5003;66867;42.658;23.320;2023-02-04T04:34:00;21;21;
77699;PMS5003;66867;42.658;23.320;2023-02-04T04:35:00;26;25;
77699;PMS5003;66867;42.658;23.320;2023-02-04T04:36:00;25;21;
77699;PMS5003;66867;42.658;23.320;2023-02-04T04:37:00;22;20;
77699;PMS5003;66867;42.658;23.320;2023-02-04T04:38:00;21;21;
77699;PMS5003;66867;42.658;23.320;2023-02-04T04:39:00;25;21;
77699;PMS5003;66867;42.658;23.320;2023-02-04T04:40:00;24;21;
77699;PMS5003;66867;42.658;23.320;2023-02-04T04:41:00;22;21;
77699;PMS5003;66867;42.658;23.320;2023-02-04T04:42:00;20;19;
77699;PMS5003;66867;42.658;23.320;2023-02-04T04:43:00;25;22;
77699;PMS5003;66867;42.658;23.320;2023-02-04T04:44:00;22;20;
77699;PMS5003;66867;42.658;23.320;2023-02-04T04:45:00;21;21;
77699;PMS5003;66867;42.658;23.320;2023-02-04T04:46:00;22;21;
77699;PMS5003;66867;42.658;23.320;2023-02-04T04:47:00;20;19;
77699;PMS5003;66867;42.658;23.320;2023-02-04T04:48:00;24;22;
77699;PMS5003;66867;42.658;23.320;2023-02-04T04:49:00;24;20;
77699;PMS5003;66867;42.658;23.320;2023-02-04T04:50:00;28;23;
77699;PMS5003;66867;42.658;23.320;2023-02-04T04:51:00;21;20;
77699;PMS5003;66867;42.658;23.320;2023-02-04T04:52:00;19;19;
77699;PMS5003;66867;42.658;23.320;2023-02-04T04:53:00;26;24;
77699;PMS5003;66867;42.658;23.320;2023-02-04T04:54:00;25;25;
77699;PMS5003;66867;42.658;23.320;2023-02-04T04:55:00;19;17;
77699;PMS5003;66867;42.658;23.320;2023-02-04T04:56:00;26;26;
77699;PMS5003;66867;42.658;23.320;2023-02-04T04:57:00;20;19;
77699;PMS5003;66867;42.658;23.320;2023-02-04T04:58:00;24;21;
77699;PMS5003;66867;42.658;23.320;2023-02-04T04:59:00;20;20;
77699;PMS5003;66867;42.658;23.320;2023-02-04T05:00:00;24;20;
77699;PMS5003;66867;42.658;23.320;2023-02-04T05:01:00;26;25;
77699;PMS5003;66867;42.658;23.320;2023-02-04T05:02:00;22;21;
77699;PMS5003;66867;42.658;23.320;2023-02-04T05:03:00;11;10;
77699;PMS5003;66867;42.658;23.320;2023-02-04T05:04:00;7;6;
77699;PMS5003;66867;42.658;23.320;2023-02-04T05:05:00;3;3;
77699;PMS5003;66867;42.658;23.320;2023-02-04T05:06:00;3;3;
77699;PMS5003;66867;42.658;23.320;2023-02-04T05:07:00;2;2;
77699;PMS5003;66867;42.658;23.320;2023-02-04T05:08:00;3;2;
77699;PMS5003;66867;42.658;23.320;2023-02-04T05:09:00;3;3;
77699;PMS5003;66867;42.658;23.320;2023-02-04T05:10:01;3;2;
77699;PMS5003;66867;42.658;23.320;2023-02-04T05:11:00;2;2;
77699;PMS5003;66867;42.658;23.320;2023-02-04T05:12:00;2;2;
77699;PMS5003;66867;42.658;23.320;2023-02-04T05:13:00;3;2;
77699;PMS5003;66867;42.658;23.320;2023-02-04T05:14:00;2;2;
77699;PMS5003;66867;42.658;23.320;2023-02-04T05:15:00;3;3;
77699;PMS5003;66867;42.658;23.320;2023-02-04T05:16:00;3;3;
77699;PMS5003;66867;42.658;23.320;2023-02-04T05:17:00;3;3;
77699;PMS5003;66867;42.658;23.320;2023-02-04T05:18:00;5;5;
77699;PMS5003;66867;42.658;23.320;2023-02-04T05:19:00;3;3;
77699;PMS5003;66867;42.658;23.320;2023-02-04T05:20:00;3;3;
77699;PMS5003;66867;42.658;23.320;2023-02-04T05:21:00;3;3;
77699;PMS5003;66867;42.658;23.320;2023-02-04T05:22:00;5;5;
77699;PMS5003;66867;42.658;23.320;2023-02-04T05:23:00;6;6;
77699;PMS5003;66867;42.658;23.320;2023-02-04T05:24:00;6;6;
77699;PMS5003;66867;42.658;23.320;2023-02-04T05:25:00;6;6;
77699;PMS5003;66867;42.658;23.320;2023-02-04T05:26:00;11;10;
77699;PMS5003;66867;42.658;23.320;2023-02-04T05:27:00;6;6;
77699;PMS5003;66867;42.658;23.320;2023-02-04T05:28:00;6;6;
77699;PMS5003;66867;42.658;23.320;2023-02-04T05:29:00;5;5;
77699;PMS5003;66867;42.658;23.320;2023-02-04T05:30:00;3;3;
77699;PMS5003;66867;42.658;23.320;2023-02-04T05:31:00;6;5;
77699;PMS5003;66867;42.658;23.320;2023-02-04T05:32:00;5;5;
77699;PMS5003;66867;42.658;23.320;2023-02-04T05:33:00;7;7;
77699;PMS5003;66867;42.658;23.320;2023-02-04T05:34:00;5;5;
77699;PMS5003;66867;42.658;23.320;2023-02-04T05:35:00;6;6;
77699;PMS5003;66867;42.658;23.320;2023-02-04T05:36:00;6;6;
77699;PMS5003;66867;42.658;23.320;2023-02-04T05:37:00;3;3;
77699;PMS5003;66867;42.658;23.320;2023-02-04T05:38:00;6;6;
77699;PMS5003;66867;42.658;23.320;2023-02-04T05:39:00;6;6;
77699;PMS5003;66867;42.658;23.320;2023-02-04T05:40:00;5;5;
77699;PMS5003;66867;42.658;23.320;2023-02-04T05:41:00;7;6;
77699;PMS5003;66867;42.658;23.320;2023-02-04T05:42:00;6;5;
77699;PMS5003;66867;42.658;23.320;2023-02-04T05:43:00;6;5;
77699;PMS5003;66867;42.658;23.320;2023-02-04T05:44:00;6;5;
77699;PMS5003;66867;42.658;23.320;2023-02-04T05:45:00;7;6;
77699;PMS5003;66867;42.658;23.320;2023-02-04T05:46:00;7;6;
77699;PMS5003;66867;42.658;23.320;2023-02-04T05:47:00;3;3;
77699;PMS5003;66867;42.658;23.320;2023-02-04T05:48:00;3;3;
77699;PMS5003;66867;42.658;23.320;2023-02-04T05:49:00;5;5;
77699;PMS5003;66867;42.658;23.320;2023-02-04T05:50:00;3;3;
77699;PMS5003;66867;42.658;23.320;2023-02-04T05:51:00;5;5;
77699;PMS5003;66867;42.658;23.320;2023-02-04T05:52:00;3;3;
77699;PMS5003;66867;42.658;23.320;2023-02-04T05:53:00;5;5;
77699;PMS5003;66867;42.658;23.320;2023-02-04T05:54:00;2;2;
77699;PMS5003;66867;42.658;23.320;2023-02-04T05:55:00;6;6;
77699;PMS5003;66867;42.658;23.320;2023-02-04T05:56:00;5;5;
77699;PMS5003;66867;42.658;23.320;2023-02-04T05:57:00;6;6;
77699;PMS5003;66867;42.658;23.320;2023-02-04T05:58:00;5;5;
77699;PMS5003;66867;42.658;23.320;2023-02-04T05:59:00;5;5;
77699;PMS5003;66867;42.658;23.320;2023-02-04T06:00:00;3;3;
77699;PMS5003;66867;42.658;23.320;2023-02-04T06:01:00;5;5;
77699;PMS5003;66867;42.658;23.320;2023-02-04T06:02:00;5;5;
77699;PMS5003;66867;42.658;23.320;2023-02-04T06:03:00;6;6;
77699;PMS5003;66867;42.658;23.320;2023-02-04T06:04:00;3;3;
77699;PMS5003;66867;42.658;23.320;2023-02-04T06:06:00;5;5;
77699;PMS5003;66867;42.658;23.320;2023-02-04T06:07:00;5;5;
77699;PMS5003;66867;42.658;23.320;2023-02-04T06:08:00;5;5;
77699;PMS5003;66867;42.658;23.320;2023-02-04T06:09:00;6;6;
77699;PMS5003;66867;42.658;23.320;2023-02-04T06:10:00;3;3;
77699;PMS5003;66867;42.658;23.320;2023-02-04T06:11:00;5;3;
77699;PMS5003;66867;42.658;23.320;2023-02-04T06:12:00;3;3;
77699;PMS5003;66867;42.658;23.320;2023-02-04T06:13:00;5;5;
77699;PMS5003;66867;42.658;23.320;2023-02-04T06:14:00;3;2;
77699;PMS5003;66867;42.658;23.320;2023-02-04T06:15:00;4;3;
77699;PMS5003;66867;42.658;23.320;2023-02-04T06:16:00;6;6;
77699;PMS5003;66867;42.658;23.320;2023-02-04T06:17:00;5;5;
77699;PMS5003;66867;42.658;23.320;2023-02-04T06:18:00;5;3;
77699;PMS5003;66867;42.658;23.320;2023-02-04T06:19:00;5;3;
77699;PMS5003;66867;42.658;23.320;2023-02-04T06:20:00;4;4;
77699;PMS5003;66867;42.658;23.320;2023-02-04T06:21:00;3;3;
77699;PMS5003;66867;42.658;23.320;2023-02-04T06:22:00;4;3;
77699;PMS5003;66867;42.658;23.320;2023-02-04T06:23:00;7;7;
77699;PMS5003;66867;42.658;23.320;2023-02-04T06:24:00;4;4;
77699;PMS5003;66867;42.658;23.320;2023-02-04T06:25:00;3;3;
77699;PMS5003;66867;42.658;23.320;2023-02-04T06:26:01;4;4;
77699;PMS5003;66867;42.658;23.320;2023-02-04T06:27:00;3;3;
77699;PMS5003;66867;42.658;23.320;2023-02-04T06:28:00;6;6;
77699;PMS5003;66867;42.658;23.320;2023-02-04T06:29:00;4;4;
77699;PMS5003;66867;42.658;23.320;2023-02-04T06:30:00;6;6;
77699;PMS5003;66867;42.658;23.320;2023-02-04T06:31:00;4;4;
77699;PMS5003;66867;42.658;23.320;2023-02-04T06:32:00;3;3;
77699;PMS5003;66867;42.658;23.320;2023-02-04T06:33:00;4;4;
77699;PMS5003;66867;42.658;23.320;2023-02-04T06:34:00;3;3;
77699;PMS5003;66867;42.658;23.320;2023-02-04T06:35:00;4;4;
77699;PMS5003;66867;42.658;23.320;2023-02-04T06:36:00;4;4;